gordon.dewis.ca - Random musings from Gordon

Subscribe

No redeeming features

February 23, 2016 @ 22:21 By: gordon Category: Weather

I can see no redeeming features in the forecast for the next day or so:

TAF CYOW 240238Z 2403/2424 05005KT P6SM OVC040 TEMPO 2406/2408 P6SM -SN BKN020 OVC040
FM240800 03005KT P6SM -SN FEW010 BKN020 OVC040 TEMPO 2408/2410 P6SM NSW BKN025 OVC040
FM241000 02005KT P6SM -SN SCT008 OVC020 TEMPO 2410/2414 3SM -SN BKN008 OVC020 PROB30 2410/2414 2SM -SN -FZDZ BR OVC004
FM241400 05010KT 11/2SM -SN OVC008 TEMPO 2414/2417 3SM -SN OVC020
FM241700 06015G25KT 1/2SM SN BLSN VV005
FM242000 07015G25KT 1SM -SNPL OVC006 PROB30 2420/2422 1/2SM SN BLSN
FM242300 07015G25KT 2SM -FZRA BR OVC006
RMK NXT FCST BY 240600Z=

Light snow. Light snow with light freezin drizzle. Moderate snow. Blowing snow. Snow pellets. Light freezing rain. And increasing amounts of wind as time marches on.

Nope, not a single redeeming feature.

Leave a Reply

CAPTCHA
*